Terminal Aerodrome Forecast
Issued by NWS

Home | Current Version | Previous Version | Text Only | Print | Product List | Glossary On
Versions: 1 2 3 4 5 6 7 8 9 10 11 12 13 14 15 16 17 18 19 20 21 22
000
FTAK31 PAJN 301138
TAFAPG
TAF
PAPG 301138Z 3012/3112 VRB03KT 3SM -SHRA BR BKN004 OVC030
      TEMPO 3012/3016 00000KT 1/2SM -RA FG BKN002 OVC010
     FM301600 08008KT 5SM -RA BR BKN020 OVC035
     FM301900 12015G25KT 5SM -RA BR BKN020 OVC035 WS020/13040KT
     FM302100 11020G32KT 5SM -RA BR BKN020 OVC035 WS020/15050KT
     FM310100 18015G25KT P6SM -RA BKN030 OVC050 WS020/18035KT
     FM310400 21010G20KT P6SM -RA BKN030 OVC050
     FM310900 21010KT 5SM -RA BR BKN020 OVC050
      AMD LTD TO CLD VIS AND WIND 3012/3015=

USA.gov is the U.S. government's official web portal to all federal, state and local government web resources and services.